Time;durP1;ratioP1;P1;durP2;ratioP2;P2;SDS_P1;SDS_P2;PMS_P1;PMS_P2;Temp;Humidity;BMP_temperature;BMP_pressure;BME280_temperature;BME280_humidity;BME280_pressure;Samples;Min_cycle;Max_cycle;Signal;HPM_P1;HPM_P2
2022/10/11 00:01:45;;;;;;;;;4.00;2.00;;;;;15.20;78.63;101891.41;5101360;27;45356;-78
2022/10/11 00:04:11;;;;;;;;;3.67;3.67;;;;;15.17;79.24;101886.41;5101839;27;45317;-78
2022/10/11 00:06:37;;;;;;;;;4.00;4.00;;;;;15.14;78.96;101896.47;5100372;27;45196;-78
2022/10/11 00:09:03;;;;;;;;;4.00;3.00;;;;;15.16;79.05;101904.31;5101737;27;45526;-78
2022/10/11 00:11:29;;;;;;;;;4.33;3.67;;;;;15.00;79.17;101881.97;5101395;27;46313;-78
2022/10/11 00:13:54;;;;;;;;;6.00;4.67;;;;;15.06;79.36;101890.31;5101473;27;45300;-77
2022/10/11 00:16:19;;;;;;;;;8.00;7.00;;;;;15.06;79.57;101895.69;5101833;27;45281;-78
2022/10/11 00:18:45;;;;;;;;;8.00;5.33;;;;;15.04;79.66;101906.56;5101270;27;45241;-77
2022/10/11 00:21:13;;;;;;;;;4.33;4.33;;;;;14.94;80.01;101901.44;5101570;27;46126;-78
2022/10/11 00:23:39;;;;;;;;;5.67;3.00;;;;;14.93;80.20;101910.44;5134662;27;45926;-78
2022/10/11 00:26:06;;;;;;;;;5.00;3.67;;;;;14.86;80.02;101906.81;5101293;27;45440;-78
2022/10/11 00:28:32;;;;;;;;;5.67;4.67;;;;;14.91;80.01;101917.00;5101483;27;45450;-78
2022/10/11 00:30:58;;;;;;;;;2.33;2.33;;;;;14.79;80.01;101906.69;5101007;27;45462;-77
2022/10/11 00:33:24;;;;;;;;;3.00;3.00;;;;;14.78;80.37;101913.03;5101270;27;45317;-78
2022/10/11 00:35:49;;;;;;;;;5.00;3.67;;;;;14.74;79.79;101917.88;5101419;27;45420;-78
2022/10/11 00:38:15;;;;;;;;;4.00;2.33;;;;;14.68;79.84;101913.22;5099918;27;45958;-78
2022/10/11 00:40:41;;;;;;;;;2.33;2.00;;;;;14.63;80.05;101912.88;5134429;27;48479;-79
2022/10/11 00:43:27;;;;;;;;;3.00;3.00;;;;;14.63;80.30;101915.56;5100909;27;45368;-78
2022/10/11 00:45:55;;;;;;;;;6.67;3.33;;;;;14.64;80.36;101925.28;5101067;27;45387;-78
2022/10/11 00:48:26;;;;;;;;;5.00;3.00;;;;;14.61;80.21;101925.63;5099562;27;45330;-78
2022/10/11 00:50:53;;;;;;;;;5.00;3.00;;;;;14.62;80.54;101922.75;5120470;27;48104;-78
2022/10/11 00:53:21;;;;;;;;;6.67;4.00;;;;;14.56;80.48;101923.44;5100514;27;45308;-78
2022/10/11 00:56:11;;;;;;;;;1.67;0.00;;;;;14.57;80.19;101930.47;5134406;27;45315;-77
2022/10/11 00:58:37;;;;;;;;;3.00;3.00;;;;;14.55;80.35;101929.81;5134144;27;46087;-77
2022/10/11 01:01:03;;;;;;;;;4.33;2.33;;;;;14.47;80.17;101919.13;5100520;27;46129;-78
2022/10/11 01:03:31;;;;;;;;;4.00;2.00;;;;;14.44;80.12;101916.78;5100526;27;45326;-78
2022/10/11 01:05:57;;;;;;;;;5.67;3.33;;;;;14.48;80.16;101928.81;5100922;27;45352;-78
2022/10/11 01:08:23;;;;;;;;;5.33;2.67;;;;;14.43;80.10;101925.81;5133693;27;45659;-78
2022/10/11 01:10:48;;;;;;;;;1.67;1.67;;;;;14.38;80.16;101915.63;5100642;27;46148;-78
2022/10/11 01:13:14;;;;;;;;;2.00;2.00;;;;;14.46;80.43;101938.84;5099181;27;45616;-78
2022/10/11 01:15:54;;;;;;;;;5.00;3.33;;;;;14.43;80.36;101928.50;5100345;27;45495;-78
2022/10/11 01:19:06;;;;;;;;;4.67;3.00;;;;;14.41;80.14;101925.16;5133742;27;46214;-78
2022/10/11 01:21:39;;;;;;;;;2.33;2.33;;;;;14.46;79.97;101928.16;5100198;27;46209;-78
2022/10/11 01:24:13;;;;;;;;;3.00;3.00;;;;;14.43;79.74;101926.66;5100367;27;45335;-78
2022/10/11 01:26:53;;;;;;;;;1.67;1.67;;;;;14.41;79.95;101926.00;5100735;27;45348;-78
2022/10/11 01:29:40;;;;;;;;;3.00;3.00;;;;;14.41;79.80;101923.31;5099022;27;46143;-78
2022/10/11 01:32:11;;;;;;;;;1.33;1.33;;;;;14.41;79.75;101927.81;5099548;27;45344;-78
2022/10/11 01:35:04;;;;;;;;;3.00;0.67;;;;;14.39;79.70;101919.97;5100301;27;45277;-78
2022/10/11 01:37:35;;;;;;;;;2.33;1.67;;;;;14.38;79.82;101929.00;5098939;27;45322;-78
2022/10/11 01:40:12;;;;;;;;;3.00;2.00;;;;;14.27;79.43;101914.16;5099030;27;46212;-78
2022/10/11 01:42:40;;;;;;;;;3.00;2.00;;;;;14.33;79.52;101929.53;5099788;27;46431;-78
2022/10/11 01:45:13;;;;;;;;;4.00;2.33;;;;;14.21;79.28;101914.81;5100293;27;45237;-78
2022/10/11 01:47:41;;;;;;;;;4.67;3.00;;;;;14.20;79.31;101923.84;5100037;27;45371;-78
2022/10/11 01:50:49;;;;;;;;;2.67;2.00;;;;;14.20;79.33;101929.19;5100071;27;45374;-77
2022/10/11 01:53:27;;;;;;;;;1.67;1.67;;;;;14.14;79.33;101928.03;5090321;27;46237;-78
2022/10/11 01:56:20;;;;;;;;;2.00;2.00;;;;;14.08;79.46;101931.38;5100085;27;45449;-78
2022/10/11 01:58:52;;;;;;;;;6.00;3.33;;;;;13.98;79.10;101920.88;5088439;27;45451;-77
2022/10/11 02:01:49;;;;;;;;;2.00;2.00;;;;;14.02;79.50;101932.91;5132818;27;47164;-77
2022/10/11 02:04:38;;;;;;;;;2.00;2.00;;;;;13.92;79.02;101927.72;5099737;27;45299;-78
2022/10/11 02:07:29;;;;;;;;;3.67;2.00;;;;;13.92;79.56;101927.72;5067256;27;46146;-78
2022/10/11 02:10:04;;;;;;;;;3.67;2.33;;;;;13.78;79.31;101915.88;5133081;27;45289;-78
2022/10/11 02:12:34;;;;;;;;;2.00;2.00;;;;;13.79;79.31;101928.22;5099607;27;45344;-78
2022/10/11 02:15:07;;;;;;;;;1.67;1.00;;;;;13.76;79.52;101920.53;5099738;27;45405;-78
2022/10/11 02:17:38;;;;;;;;;1.33;1.33;;;;;13.66;79.31;101917.19;5098224;27;45618;-78
2022/10/11 02:20:10;;;;;;;;;4.00;1.67;;;;;13.63;79.59;101918.38;5098471;27;45334;-79
2022/10/11 02:22:39;;;;;;;;;2.67;2.67;;;;;13.63;79.60;101913.88;5099548;27;45294;-78
2022/10/11 02:25:11;;;;;;;;;3.67;2.00;;;;;13.66;79.63;101933.22;5099681;27;46322;-78
2022/10/11 02:27:40;;;;;;;;;2.00;2.00;;;;;13.62;79.64;101922.06;5099510;27;45539;-78
2022/10/11 02:30:08;;;;;;;;;1.33;1.00;;;;;13.60;79.24;101918.69;5099833;27;45377;-78
2022/10/11 02:32:38;;;;;;;;;2.67;2.00;;;;;13.55;79.67;101921.88;5099004;27;45467;-78
2022/10/11 02:35:04;;;;;;;;;4.00;4.00;;;;;13.49;79.36;101911.81;5099558;27;46292;-78
2022/10/11 02:37:54;;;;;;;;;2.00;1.00;;;;;13.58;79.30;101924.19;5099231;27;45417;-78
2022/10/11 02:40:24;;;;;;;;;2.00;2.00;;;;;13.54;79.30;101919.34;5063586;27;45501;-78
2022/10/11 02:42:57;;;;;;;;;2.00;1.67;;;;;13.53;78.70;101925.69;5095166;27;46550;-78
2022/10/11 02:45:40;;;;;;;;;3.33;3.00;;;;;13.44;79.28;101924.81;5101969;27;46128;-78
2022/10/11 02:48:07;;;;;;;;;2.00;2.00;;;;;13.42;79.10;101922.31;5102738;27;45409;-78
2022/10/11 02:50:32;;;;;;;;;3.67;2.67;;;;;13.43;79.33;101934.66;5103073;27;45434;-78
2022/10/11 02:52:58;;;;;;;;;2.33;2.33;;;;;13.44;79.23;101933.66;5136099;27;45914;-78
2022/10/11 02:55:23;;;;;;;;;1.33;1.33;;;;;13.35;79.01;101916.78;5103007;27;45267;-78
2022/10/11 02:57:48;;;;;;;;;2.33;2.00;;;;;13.39;79.01;101930.66;5102888;27;45205;-78
2022/10/11 03:00:14;;;;;;;;;1.33;1.33;;;;;13.33;78.91;101928.63;5103015;27;45258;-78
2022/10/11 03:02:40;;;;;;;;;3.67;3.33;;;;;13.31;78.96;101926.13;5135668;27;46974;-78
2022/10/11 03:05:05;;;;;;;;;3.00;2.67;;;;;13.34;78.94;101930.31;5102307;27;46209;-78
2022/10/11 03:07:30;;;;;;;;;2.33;2.00;;;;;13.28;78.81;101925.59;5102901;27;45617;-78
2022/10/11 03:09:56;;;;;;;;;1.67;1.33;;;;;13.24;78.96;101925.13;5102550;27;45318;-78
2022/10/11 03:12:21;;;;;;;;;2.00;0.67;;;;;13.30;78.99;101936.97;5102353;27;45244;-78
2022/10/11 03:14:47;;;;;;;;;4.67;3.67;;;;;13.24;79.10;101928.63;5102620;27;45294;-78
2022/10/11 03:17:12;;;;;;;;;1.33;1.33;;;;;13.29;78.94;101938.78;5102242;27;45426;-78
2022/10/11 03:19:38;;;;;;;;;0.33;0.33;;;;;13.19;78.86;101933.59;5102851;27;45310;-78
2022/10/11 03:22:03;;;;;;;;;3.00;2.33;;;;;13.19;78.49;101944.28;5102224;27;45305;-78
2022/10/11 03:24:28;;;;;;;;;1.33;1.33;;;;;13.15;78.65;101937.59;5135765;27;47644;-78
2022/10/11 03:26:54;;;;;;;;;3.67;3.67;;;;;13.17;78.63;101942.78;5101150;27;45948;-78
2022/10/11 03:29:19;;;;;;;;;0.67;0.67;;;;;13.21;78.67;101955.66;5135693;27;45392;-78
2022/10/11 03:31:44;;;;;;;;;2.00;1.33;;;;;13.13;78.87;101942.25;5102136;27;45439;-78
2022/10/11 03:34:10;;;;;;;;;1.00;1.00;;;;;13.09;78.98;101938.25;5102057;27;45438;-78
2022/10/11 03:36:35;;;;;;;;;2.67;1.33;;;;;13.12;78.46;101946.78;5102379;27;45323;-78
2022/10/11 03:39:02;;;;;;;;;4.00;3.33;;;;;13.12;78.32;101949.44;5135527;27;45322;-78
2022/10/11 03:41:28;;;;;;;;;2.33;2.00;;;;;13.01;78.35;101944.38;5102181;27;46028;-78
2022/10/11 03:43:53;;;;;;;;;2.33;2.33;;;;;13.03;78.81;101960.25;5101920;27;46187;-78
2022/10/11 03:46:18;;;;;;;;;3.00;2.00;;;;;12.99;78.37;101952.56;5101792;27;45215;-78
2022/10/11 03:48:44;;;;;;;;;2.67;2.00;;;;;13.00;78.51;101959.56;5135466;27;45340;-78
2022/10/11 03:51:11;;;;;;;;;1.33;1.33;;;;;12.93;78.72;101947.03;5101793;27;45539;-77
2022/10/11 03:53:37;;;;;;;;;4.33;2.00;;;;;12.92;78.27;101953.34;5101880;27;47148;-78
2022/10/11 03:56:02;;;;;;;;;3.33;2.00;;;;;12.90;78.33;101956.19;5100089;27;45357;-78
2022/10/11 03:58:28;;;;;;;;;3.67;3.00;;;;;12.85;78.39;101956.69;5135322;27;45331;-78
2022/10/11 04:00:53;;;;;;;;;2.00;2.00;;;;;12.82;78.31;101957.00;5101882;27;45359;-78
2022/10/11 04:03:19;;;;;;;;;0.67;0.67;;;;;12.75;78.52;101951.44;5101523;27;46038;-78
2022/10/11 04:05:44;;;;;;;;;2.33;1.33;;;;;12.77;78.44;101963.78;5100338;27;45320;-78
2022/10/11 04:08:09;;;;;;;;;3.00;1.00;;;;;12.75;78.58;101971.94;5101708;27;45518;-78
2022/10/11 04:10:34;;;;;;;;;3.00;1.67;;;;;12.73;78.43;101974.78;5101745;27;45263;-78
2022/10/11 04:13:00;;;;;;;;;2.67;2.00;;;;;12.63;78.51;101966.88;5101336;27;46479;-78
2022/10/11 04:15:25;;;;;;;;;3.00;2.00;;;;;12.54;78.36;101964.34;5101384;27;45306;-78
2022/10/11 04:17:50;;;;;;;;;3.00;3.00;;;;;12.58;78.65;101977.22;5101854;27;45259;-78
2022/10/11 04:20:16;;;;;;;;;2.33;2.33;;;;;12.45;78.78;101958.94;5101531;27;45534;-77
2022/10/11 04:22:41;;;;;;;;;1.33;1.00;;;;;12.55;78.69;101974.00;5101315;27;45419;-78
2022/10/11 04:25:07;;;;;;;;;2.67;1.00;;;;;12.48;78.47;101969.28;5101484;27;45313;-78
2022/10/11 04:27:33;;;;;;;;;4.67;4.33;;;;;12.54;78.96;101985.66;5101582;27;45293;-78
2022/10/11 04:29:59;;;;;;;;;3.00;3.00;;;;;12.48;78.67;101974.63;5101305;27;45455;-78
2022/10/11 04:32:24;;;;;;;;;5.67;3.00;;;;;12.50;79.27;101977.97;5100977;27;45275;-78
2022/10/11 04:34:50;;;;;;;;;3.67;3.67;;;;;12.54;78.90;101978.50;5101598;27;45471;-78
2022/10/11 04:37:16;;;;;;;;;3.33;3.00;;;;;12.58;78.95;101973.69;5100086;27;45482;-78
2022/10/11 04:39:41;;;;;;;;;2.67;2.67;;;;;12.64;78.60;101986.41;5129005;27;46296;-78
2022/10/11 04:42:07;;;;;;;;;2.00;2.00;;;;;12.59;78.46;101986.03;5092234;27;46072;-78
2022/10/11 04:44:32;;;;;;;;;6.67;2.67;;;;;12.63;78.33;101984.72;5101149;27;45237;-78
2022/10/11 04:46:57;;;;;;;;;2.33;2.33;;;;;12.58;78.46;101985.22;5099883;27;45693;-78
2022/10/11 04:49:23;;;;;;;;;5.33;3.00;;;;;12.47;78.48;101977.44;5100902;27;45357;-78
2022/10/11 04:51:48;;;;;;;;;4.00;2.67;;;;;12.42;78.90;101980.59;5101141;27;45341;-78
2022/10/11 04:54:14;;;;;;;;;4.67;4.00;;;;;12.48;78.45;101998.63;5100826;27;45273;-78
2022/10/11 04:56:39;;;;;;;;;3.33;3.33;;;;;12.43;78.16;101990.28;5100964;27;45361;-78
2022/10/11 04:59:05;;;;;;;;;8.00;7.00;;;;;12.34;78.30;101981.38;5100985;27;45384;-78
2022/10/11 05:01:30;;;;;;;;;14.33;10.00;;;;;12.33;78.42;101981.53;5100409;27;45363;-78
2022/10/11 05:03:55;;;;;;;;;63.00;50.00;;;;;12.26;78.35;101975.97;5100746;27;45331;-78
2022/10/11 05:06:21;;;;;;;;;44.00;34.67;;;;;12.27;78.52;101987.47;5133448;27;45325;-77
2022/10/11 05:08:46;;;;;;;;;11.00;9.33;;;;;12.27;78.51;101987.47;5100353;27;45715;-78
2022/10/11 05:11:14;;;;;;;;;67.50;52.00;;;;;12.24;78.82;101989.44;5100477;27;46023;-78
2022/10/11 05:13:40;;;;;;;;;111.00;101.25;;;;;12.19;78.85;101983.75;5104007;27;45618;-78
2022/10/11 05:16:06;;;;;;;;;28.33;22.67;;;;;12.24;78.89;101997.44;5100627;27;45331;-79
2022/10/11 05:18:31;;;;;;;;;70.00;52.75;;;;;12.22;78.65;101994.09;5133683;27;46142;-78
2022/10/11 05:21:02;;;;;;;;;66.25;51.25;;;;;12.22;79.03;102001.28;5100202;27;45987;-78
2022/10/11 05:23:29;;;;;;;;;53.25;40.00;;;;;12.20;78.87;102001.44;5099144;27;45385;-78
2022/10/11 05:25:54;;;;;;;;;34.67;29.33;;;;;12.17;79.16;101996.41;5100270;27;45324;-78
2022/10/11 05:28:19;;;;;;;;;42.33;35.00;;;;;12.18;79.23;102002.56;5133567;27;45405;-78
2022/10/11 05:30:45;;;;;;;;;53.50;42.75;;;;;12.14;79.38;101991.38;5100021;27;45152;-78
2022/10/11 05:33:10;;;;;;;;;76.50;67.75;;;;;12.11;79.29;101989.88;5100363;27;45261;-78
2022/10/11 05:35:36;;;;;;;;;80.00;67.25;;;;;12.10;79.66;101988.16;5100426;27;45419;-78
2022/10/11 05:38:01;;;;;;;;;67.75;52.25;;;;;12.19;79.79;101999.75;5098794;27;45832;-78
2022/10/11 05:40:26;;;;;;;;;71.50;56.25;;;;;12.10;79.57;101982.84;5098910;27;48385;-78
2022/10/11 05:42:51;;;;;;;;;49.50;38.75;;;;;12.15;79.81;101995.69;5100119;27;45166;-77
2022/10/11 05:45:17;;;;;;;;;77.75;64.25;;;;;12.15;79.65;101998.38;5100154;27;45215;-78
2022/10/11 05:47:42;;;;;;;;;63.00;47.75;;;;;12.17;79.96;102004.41;5099974;27;45255;-79
2022/10/11 05:50:08;;;;;;;;;57.00;44.25;;;;;12.19;79.98;102001.56;5099957;27;45318;-78
2022/10/11 05:52:33;;;;;;;;;46.67;35.33;;;;;12.14;79.85;101994.03;5100068;27;45313;-78
2022/10/11 05:54:59;;;;;;;;;29.33;26.67;;;;;12.13;79.64;101997.69;5099981;27;45420;-78
2022/10/11 05:57:24;;;;;;;;;29.00;23.00;;;;;12.15;79.58;102014.34;5126264;27;45969;-79
2022/10/11 05:59:49;;;;;;;;;44.67;32.67;;;;;12.07;79.64;101993.84;5099738;27;45362;-78
2022/10/11 06:02:14;;;;;;;;;54.00;43.00;;;;;12.11;79.96;101997.00;5132311;27;45947;-79
2022/10/11 06:04:40;;;;;;;;;49.00;37.50;;;;;12.11;79.92;101997.00;5099885;27;45334;-78
2022/10/11 06:07:05;;;;;;;;;22.67;18.00;;;;;12.16;79.73;102001.88;5099925;27;45247;-78
2022/10/11 06:09:33;;;;;;;;;37.00;32.33;;;;;12.14;79.76;102006.50;5099803;27;45315;-78
2022/10/11 06:11:59;;;;;;;;;61.00;46.50;;;;;12.08;80.01;101999.97;5099303;27;45325;-79
2022/10/11 06:14:25;;;;;;;;;50.00;40.25;;;;;12.08;79.78;102005.31;5100003;27;45337;-76
2022/10/11 06:16:50;;;;;;;;;39.00;32.67;;;;;12.05;79.77;102000.25;5099449;27;45474;-77
2022/10/11 06:19:15;;;;;;;;;66.50;49.25;;;;;12.05;79.78;102003.75;5100409;27;48245;-77
2022/10/11 06:21:41;;;;;;;;;49.00;38.25;;;;;12.02;79.69;101997.88;5103378;27;45244;-76
2022/10/11 06:24:08;;;;;;;;;75.00;56.50;;;;;12.03;79.54;102008.41;5103278;27;45241;-78
2022/10/11 06:26:33;;;;;;;;;113.75;95.25;;;;;12.04;79.63;102017.25;5103198;27;45400;-77
2022/10/11 06:28:59;;;;;;;;;70.75;55.25;;;;;11.99;79.98;102012.38;5103175;27;46150;-76
2022/10/11 06:31:24;;;;;;;;;115.50;97.00;;;;;11.99;79.81;102002.56;5103044;27;45604;-77
2022/10/11 06:33:50;;;;;;;;;145.75;119.50;;;;;11.99;79.71;102017.69;5103357;27;45376;-76
2022/10/11 06:36:16;;;;;;;;;69.75;51.50;;;;;11.97;79.54;102023.16;5101532;27;47394;-77
2022/10/11 06:38:42;;;;;;;;;48.00;32.67;;;;;12.02;79.84;102030.72;5103192;27;46307;-76
2022/10/11 06:41:25;;;;;;;;;130.25;113.25;;;;;12.05;79.63;102026.91;5102892;27;45385;-76
2022/10/11 06:43:51;;;;;;;;;69.00;53.00;;;;;12.05;79.58;102037.56;5101805;27;45320;-77
2022/10/11 06:46:19;;;;;;;;;61.25;44.25;;;;;12.03;79.60;102023.56;5102593;27;45348;-78
2022/10/11 06:48:46;;;;;;;;;83.75;75.25;;;;;12.07;79.26;102036.47;5102614;27;47249;-75
2022/10/11 06:51:13;;;;;;;;;52.75;41.25;;;;;12.04;79.26;102035.88;5101412;27;45561;-77
2022/10/11 06:53:38;;;;;;;;;99.75;85.50;;;;;11.97;79.13;102030.31;5102909;27;45299;-77
2022/10/11 06:56:09;;;;;;;;;152.00;129.33;;;;;11.96;79.17;102023.31;5102678;27;45325;-77
2022/10/11 06:58:35;;;;;;;;;107.50;91.25;;;;;12.07;79.56;102038.28;5102804;27;46226;-77
2022/10/11 07:01:02;;;;;;;;;130.50;114.75;;;;;12.11;79.45;102042.31;5102579;27;45514;-78
2022/10/11 07:03:28;;;;;;;;;68.00;50.75;;;;;12.09;79.09;102033.66;5091665;27;45696;-78
2022/10/11 07:05:59;;;;;;;;;66.75;52.50;;;;;12.15;78.95;102040.19;5102372;27;45259;-77
2022/10/11 07:08:24;;;;;;;;;69.75;52.50;;;;;12.10;79.08;102022.00;5095117;27;45314;-77
2022/10/11 07:10:50;;;;;;;;;60.50;46.00;;;;;12.19;79.12;102039.75;5102327;27;45244;-77
2022/10/11 07:13:15;;;;;;;;;101.50;78.75;;;;;12.16;78.84;102033.88;5102435;27;45301;-78
2022/10/11 07:15:41;;;;;;;;;120.25;107.00;;;;;12.19;78.49;102042.41;5101315;27;45386;-78
2022/10/11 07:18:06;;;;;;;;;129.75;109.50;;;;;12.14;78.48;102043.81;5101371;27;45196;-78
2022/10/11 07:20:31;;;;;;;;;73.00;55.50;;;;;12.16;78.50;102040.03;5098733;27;45351;-78
2022/10/11 07:22:57;;;;;;;;;38.67;31.00;;;;;12.15;79.20;102037.53;5102448;27;45478;-78
2022/10/11 07:25:22;;;;;;;;;78.25;68.75;;;;;12.17;78.79;102040.84;5102322;27;45424;-78
2022/10/11 07:27:47;;;;;;;;;73.00;55.00;;;;;12.18;78.68;102040.72;5100808;27;47256;-78
2022/10/11 07:30:13;;;;;;;;;112.50;104.25;;;;;12.22;78.71;102050.06;5101174;27;45354;-78
2022/10/11 07:32:38;;;;;;;;;68.50;51.50;;;;;12.24;78.62;102055.25;5102197;27;45305;-78
2022/10/11 07:35:04;;;;;;;;;42.00;32.00;;;;;12.20;78.97;102052.06;5101388;27;45379;-77
2022/10/11 07:37:29;;;;;;;;;60.25;46.25;;;;;12.22;78.69;102049.25;5101823;27;46757;-78
2022/10/11 07:39:54;;;;;;;;;7.67;6.33;;;;;12.24;78.46;102055.25;5102330;27;45421;-77
2022/10/11 07:42:21;;;;;;;;;6.00;6.00;;;;;12.24;78.52;102056.09;5102221;27;45383;-78
2022/10/11 07:44:46;;;;;;;;;5.67;5.67;;;;;12.25;78.16;102065.75;5101701;27;45460;-79
2022/10/11 07:47:12;;;;;;;;;11.00;11.00;;;;;12.20;78.02;102070.72;5100504;27;47392;-77
2022/10/11 07:49:37;;;;;;;;;8.00;8.00;;;;;12.28;78.09;102085.09;5101972;27;45358;-77
2022/10/11 07:52:03;;;;;;;;;64.25;51.00;;;;;12.26;78.16;102069.28;5102388;27;45241;-77
2022/10/11 07:54:28;;;;;;;;;33.00;25.00;;;;;12.28;77.62;102080.63;5100414;27;46157;-77
2022/10/11 07:56:53;;;;;;;;;17.67;16.00;;;;;12.24;78.16;102073.91;5100653;27;47315;-77
2022/10/11 07:59:18;;;;;;;;;21.33;17.67;;;;;12.24;78.25;102073.91;5101837;27;45256;-78
2022/10/11 08:01:44;;;;;;;;;8.00;4.33;;;;;12.29;77.97;102076.13;5100645;27;45252;-78
2022/10/11 08:04:09;;;;;;;;;8.00;6.00;;;;;12.28;77.83;102077.97;5094586;27;45921;-76
2022/10/11 08:06:35;;;;;;;;;58.00;44.00;;;;;12.25;77.78;102078.25;5101280;27;46285;-78
2022/10/11 08:09:01;;;;;;;;;51.50;42.25;;;;;12.32;78.22;102090.00;5100040;27;45976;-79
2022/10/11 08:11:29;;;;;;;;;57.25;46.00;;;;;12.36;77.97;102096.69;5098819;27;45295;-78
2022/10/11 08:13:55;;;;;;;;;6.00;5.33;;;;;12.33;78.04;102093.50;5100194;27;46116;-78
2022/10/11 08:16:21;;;;;;;;;5.67;2.67;;;;;12.32;77.67;102090.00;5134607;27;48344;-78
2022/10/11 08:18:46;;;;;;;;;4.00;3.00;;;;;12.40;77.54;102099.91;5101244;27;45441;-78
2022/10/11 08:21:15;;;;;;;;;5.67;4.00;;;;;12.33;77.88;102086.31;5101918;27;45566;-78
2022/10/11 08:23:40;;;;;;;;;4.00;4.00;;;;;12.36;77.75;102094.00;5101464;27;45471;-78
2022/10/11 08:26:06;;;;;;;;;5.33;4.00;;;;;12.34;77.91;102085.34;5101204;27;46202;-77
2022/10/11 08:28:32;;;;;;;;;6.00;5.67;;;;;12.48;77.96;102099.94;5101159;27;45179;-76
2022/10/11 08:30:58;;;;;;;;;4.67;4.00;;;;;12.43;77.85;102082.75;5100030;27;45475;-76
2022/10/11 08:33:24;;;;;;;;;7.00;7.00;;;;;12.49;77.45;102093.63;5101549;27;45284;-79
2022/10/11 08:35:51;;;;;;;;;6.67;6.67;;;;;12.55;77.96;102099.34;5099825;27;47382;-78
2022/10/11 08:38:17;;;;;;;;;90.00;77.25;;;;;12.57;77.98;102102.69;5097446;27;45468;-78
2022/10/11 08:40:52;;;;;;;;;49.00;39.75;;;;;12.67;78.17;102105.28;5094268;27;45457;-79
2022/10/11 08:43:34;;;;;;;;;22.33;19.67;;;;;12.70;77.67;102097.81;5085869;27;45330;-77
2022/10/11 08:46:03;;;;;;;;;7.33;6.00;;;;;12.72;77.81;102095.00;5098902;27;45442;-78
2022/10/11 08:48:28;;;;;;;;;4.00;4.00;;;;;12.86;77.53;102105.09;5098602;27;45326;-78
2022/10/11 08:50:54;;;;;;;;;7.00;4.00;;;;;12.87;77.29;102103.25;5100640;27;45374;-78
2022/10/11 08:53:48;;;;;;;;;62.50;48.25;;;;;12.94;77.58;102106.97;5099376;27;45985;-79
2022/10/11 08:56:15;;;;;;;;;10.33;9.00;;;;;13.03;77.52;102109.69;5098949;27;47707;-79
2022/10/11 08:59:00;;;;;;;;;5.00;5.00;;;;;13.04;77.09;102106.88;5099709;27;45309;-78
2022/10/11 09:01:27;;;;;;;;;6.00;4.00;;;;;13.07;76.82;102111.88;5100661;27;45282;-79
2022/10/11 09:03:53;;;;;;;;;91.25;75.50;;;;;13.06;76.75;102104.03;5132986;27;46107;-79
2022/10/11 09:06:37;;;;;;;;;55.50;41.00;;;;;13.17;76.90;102110.94;5133393;27;46993;-79
2022/10/11 09:09:34;;;;;;;;;71.50;54.50;;;;;13.21;77.04;102107.81;5100873;27;45226;-79
2022/10/11 09:12:05;;;;;;;;;52.25;42.50;;;;;13.32;77.29;102120.03;5099001;27;45411;-79
2022/10/11 09:14:36;;;;;;;;;52.25;40.25;;;;;13.42;77.07;102114.59;5100351;27;45232;-79
2022/10/11 09:17:39;;;;;;;;;79.25;71.25;;;;;13.51;77.00;102110.16;5098672;27;47172;-79
2022/10/11 09:20:20;;;;;;;;;78.75;65.25;;;;;13.58;76.81;102115.69;5100588;27;45290;-80
2022/10/11 09:22:56;;;;;;;;;18.67;17.67;;;;;13.63;76.36;102113.38;5090064;27;45462;-79
2022/10/11 09:25:29;;;;;;;;;71.00;56.50;;;;;13.69;76.51;102098.53;5095931;27;47070;-79
2022/10/11 09:28:13;;;;;;;;;30.67;27.33;;;;;13.78;76.45;102096.72;5099635;27;46482;-81
2022/10/11 09:30:45;;;;;;;;;15.33;12.33;;;;;13.77;76.50;102085.22;5097577;27;45442;-80
2022/10/11 09:33:31;;;;;;;;;19.67;18.00;;;;;13.94;76.53;102098.59;5099805;27;45404;-81
2022/10/11 09:35:57;;;;;;;;;16.00;15.33;;;;;14.05;76.45;102097.44;5096824;27;45327;-79
2022/10/11 09:38:45;;;;;;;;;6.00;5.00;;;;;14.11;76.21;102088.78;5099913;27;45359;-79
2022/10/11 09:41:51;;;;;;;;;7.33;5.67;;;;;14.31;76.08;102099.16;5099635;27;45320;-79
2022/10/11 09:44:25;;;;;;;;;7.00;4.00;;;;;14.37;75.64;102096.66;5098981;27;45192;-79
2022/10/11 09:46:53;;;;;;;;;6.33;3.33;;;;;14.49;75.44;102097.16;5096638;27;45470;-80
2022/10/11 09:49:21;;;;;;;;;3.33;3.33;;;;;14.55;75.17;102092.16;5099759;27;46226;-80
2022/10/11 09:51:56;;;;;;;;;4.33;3.00;;;;;14.66;74.99;102091.81;5099990;27;45287;-79
2022/10/11 09:54:44;;;;;;;;;4.00;3.00;;;;;14.74;75.20;102081.09;5099321;27;45400;-82
2022/10/11 09:57:39;;;;;;;;;13.00;11.00;;;;;14.90;74.90;102090.13;5098943;27;45570;-82
2022/10/11 10:00:24;;;;;;;;;12.67;12.67;;;;;15.00;74.87;102093.44;5081042;27;45577;-80
2022/10/11 10:02:52;;;;;;;;;39.00;31.67;;;;;15.06;74.75;102091.13;5120018;27;45930;-80
2022/10/11 10:05:21;;;;;;;;;40.33;34.00;;;;;15.12;74.29;102093.13;5094031;27;45681;-79
2022/10/11 10:08:22;;;;;;;;;20.00;18.67;;;;;15.20;74.43;102084.22;5078120;27;45397;-82
2022/10/11 10:11:03;;;;;;;;;21.33;17.67;;;;;15.23;74.20;102089.22;5080081;27;45329;-84
2022/10/11 10:13:51;;;;;;;;;12.00;11.00;;;;;15.23;74.49;102082.00;5079424;28;45436;-80
2022/10/11 10:16:24;;;;;;;;;10.33;5.67;;;;;15.25;73.92;102090.72;5100420;27;45421;-83
2022/10/11 10:18:54;;;;;;;;;8.00;6.00;;;;;15.27;74.13;102083.34;5094450;27;47227;-81
2022/10/11 10:21:33;;;;;;;;;15.67;14.00;;;;;15.34;74.23;102088.00;5078479;27;45629;-81
2022/10/11 10:24:03;;;;;;;;;33.33;29.00;;;;;15.35;74.28;102076.28;5078852;27;45555;-81
2022/10/11 10:26:30;;;;;;;;;22.33;17.00;;;;;15.45;74.10;102082.28;5112162;27;45401;-80
2022/10/11 10:29:07;;;;;;;;;6.67;4.67;;;;;15.47;74.05;102090.97;5079032;27;45316;-80
2022/10/11 10:31:37;;;;;;;;;4.00;4.00;;;;;15.51;73.77;102080.75;5094343;27;47354;-80
2022/10/11 10:34:12;;;;;;;;;4.00;4.00;;;;;15.55;74.06;102082.06;5074857;28;45437;-83
2022/10/11 10:36:44;;;;;;;;;48.00;40.00;;;;;15.63;74.01;102079.34;5069094;27;45651;-80
2022/10/11 10:39:23;;;;;;;;;42.33;33.00;;;;;15.69;73.56;102075.13;5106354;27;47035;-81
2022/10/11 10:41:49;;;;;;;;;4.33;4.33;;;;;15.87;73.40;102076.72;5075038;27;47269;-80
2022/10/11 10:44:14;;;;;;;;;2.67;2.67;;;;;15.95;72.84;102076.66;5078610;28;45306;-80
2022/10/11 10:46:49;;;;;;;;;9.33;9.33;;;;;16.05;72.40;102079.13;5076767;28;45898;-81
2022/10/11 10:49:25;;;;;;;;;4.00;4.00;;;;;16.11;72.43;102080.28;5076295;27;45984;-83
2022/10/11 10:52:01;;;;;;;;;22.00;19.00;;;;;16.10;72.00;102073.25;5070698;27;45426;-82
2022/10/11 10:54:46;;;;;;;;;21.67;20.00;;;;;16.19;72.21;102074.84;5059074;28;45423;-82
2022/10/11 10:57:27;;;;;;;;;32.00;27.00;;;;;16.25;71.87;102076.00;5093504;27;45323;-81
2022/10/11 11:00:16;;;;;;;;;20.67;19.00;;;;;16.28;72.04;102079.13;5086940;27;45567;-81
2022/10/11 11:02:54;;;;;;;;;5.00;4.67;;;;;16.32;71.80;102076.94;5072504;27;45920;-83
2022/10/11 11:05:31;;;;;;;;;10.33;8.67;;;;;16.38;72.28;102080.72;5065753;28;45293;-82
2022/10/11 11:08:20;;;;;;;;;8.33;7.33;;;;;16.44;71.79;102071.13;5081612;28;45299;-79
2022/10/11 11:11:13;;;;;;;;;5.67;5.67;;;;;16.54;71.76;102069.03;5081298;27;45353;-81
2022/10/11 11:13:54;;;;;;;;;25.33;24.33;;;;;16.64;71.42;102061.53;5081254;27;45457;-82
2022/10/11 11:16:27;;;;;;;;;13.33;12.00;;;;;16.77;71.28;102068.13;5081703;28;45268;-83
2022/10/11 11:19:00;;;;;;;;;6.00;6.00;;;;;16.86;71.23;102066.19;5080629;28;45367;-83
2022/10/11 11:21:46;;;;;;;;;5.00;4.00;;;;;16.97;71.11;102071.09;5081735;27;45524;-83
2022/10/11 11:24:24;;;;;;;;;4.00;4.00;;;;;17.04;70.65;102063.97;5080912;27;45591;-83
2022/10/11 11:27:02;;;;;;;;;5.00;5.00;;;;;17.11;69.88;102063.25;5097681;27;45323;-83
2022/10/11 11:29:54;;;;;;;;;6.00;4.00;;;;;17.15;69.83;102070.78;5097340;27;45289;-83
2022/10/11 11:32:38;;;;;;;;;4.00;4.00;;;;;17.18;69.79;102058.81;5081134;28;45576;-83
2022/10/11 11:35:29;;;;;;;;;6.00;6.00;;;;;17.31;69.14;102060.00;5079800;28;47183;-82